Terminal Aerodrome Forecast
Issued by NWS

Home | Current Version | Previous Version | Graphics & Text | Print | Product List | Glossary On
Versions: 1 2 3 4 5 6 7 8 9 10 11 12 13 14 15 16 17
000
FTUS43 KBIS 030500
TAFMOT
TAF
KMOT 030520Z 0306/0406 30022G30KT P6SM VCSH BKN018
     FM031000 30024G30KT P6SM SCT025 BKN040
     FM031400 29025G35KT P6SM BKN020=

USA.gov is the U.S. government's official web portal to all federal, state and local government web resources and services.